sensor_id;sensor_type;location;lat;lon;timestamp;P1;durP1;ratioP1;P2;durP2;ratioP2
29384;SDS011;16367;48.736;9.218;2023-02-11T00:00:16;34.75;;;12.73;;
29384;SDS011;16367;48.736;9.218;2023-02-11T00:02:20;31.80;;;13.45;;
29384;SDS011;16367;48.736;9.218;2023-02-11T00:04:23;30.27;;;12.98;;
29384;SDS011;16367;48.736;9.218;2023-02-11T00:06:27;37.17;;;14.27;;
29384;SDS011;16367;48.736;9.218;2023-02-11T00:08:33;34.08;;;13.85;;
29384;SDS011;16367;48.736;9.218;2023-02-11T00:10:36;34.67;;;12.18;;
29384;SDS011;16367;48.736;9.218;2023-02-11T00:12:38;33.65;;;13.45;;
29384;SDS011;16367;48.736;9.218;2023-02-11T00:14:42;35.08;;;14.38;;
29384;SDS011;16367;48.736;9.218;2023-02-11T00:16:45;38.22;;;13.98;;
29384;SDS011;16367;48.736;9.218;2023-02-11T00:18:49;35.47;;;13.30;;
29384;SDS011;16367;48.736;9.218;2023-02-11T00:20:53;41.58;;;14.07;;
29384;SDS011;16367;48.736;9.218;2023-02-11T00:22:56;33.28;;;14.30;;
29384;SDS011;16367;48.736;9.218;2023-02-11T00:24:58;36.55;;;13.07;;
29384;SDS011;16367;48.736;9.218;2023-02-11T00:27:01;34.95;;;14.27;;
29384;SDS011;16367;48.736;9.218;2023-02-11T00:29:04;35.35;;;14.13;;
29384;SDS011;16367;48.736;9.218;2023-02-11T00:31:07;35.58;;;13.98;;
29384;SDS011;16367;48.736;9.218;2023-02-11T00:33:10;36.30;;;14.60;;
29384;SDS011;16367;48.736;9.218;2023-02-11T00:35:14;37.00;;;14.80;;
29384;SDS011;16367;48.736;9.218;2023-02-11T00:37:17;38.92;;;14.48;;
29384;SDS011;16367;48.736;9.218;2023-02-11T00:39:20;36.45;;;13.80;;
29384;SDS011;16367;48.736;9.218;2023-02-11T00:41:23;38.67;;;14.52;;
29384;SDS011;16367;48.736;9.218;2023-02-11T00:43:26;34.75;;;13.50;;
29384;SDS011;16367;48.736;9.218;2023-02-11T00:45:28;37.92;;;14.07;;
29384;SDS011;16367;48.736;9.218;2023-02-11T00:47:31;38.25;;;13.73;;
29384;SDS011;16367;48.736;9.218;2023-02-11T00:49:34;33.60;;;13.48;;
29384;SDS011;16367;48.736;9.218;2023-02-11T00:51:38;36.75;;;13.00;;
29384;SDS011;16367;48.736;9.218;2023-02-11T00:53:41;33.58;;;13.90;;
29384;SDS011;16367;48.736;9.218;2023-02-11T00:55:44;40.15;;;14.23;;
29384;SDS011;16367;48.736;9.218;2023-02-11T00:57:47;41.63;;;14.02;;
29384;SDS011;16367;48.736;9.218;2023-02-11T00:59:50;37.55;;;14.82;;
29384;SDS011;16367;48.736;9.218;2023-02-11T01:01:52;37.45;;;13.93;;
29384;SDS011;16367;48.736;9.218;2023-02-11T01:03:56;38.00;;;12.88;;
29384;SDS011;16367;48.736;9.218;2023-02-11T01:05:59;41.42;;;14.18;;
29384;SDS011;16367;48.736;9.218;2023-02-11T01:08:04;38.15;;;14.15;;
29384;SDS011;16367;48.736;9.218;2023-02-11T01:10:07;35.95;;;13.63;;
29384;SDS011;16367;48.736;9.218;2023-02-11T01:12:10;38.40;;;15.32;;
29384;SDS011;16367;48.736;9.218;2023-02-11T01:14:13;36.05;;;14.63;;
29384;SDS011;16367;48.736;9.218;2023-02-11T01:16:16;36.33;;;14.32;;
29384;SDS011;16367;48.736;9.218;2023-02-11T01:18:21;34.47;;;13.68;;
29384;SDS011;16367;48.736;9.218;2023-02-11T01:20:25;39.65;;;14.55;;
29384;SDS011;16367;48.736;9.218;2023-02-11T01:22:29;35.13;;;13.75;;
29384;SDS011;16367;48.736;9.218;2023-02-11T01:24:33;38.95;;;15.75;;
29384;SDS011;16367;48.736;9.218;2023-02-11T01:26:36;34.35;;;14.10;;
29384;SDS011;16367;48.736;9.218;2023-02-11T01:28:38;34.83;;;14.82;;
29384;SDS011;16367;48.736;9.218;2023-02-11T01:30:44;38.53;;;14.65;;
29384;SDS011;16367;48.736;9.218;2023-02-11T01:32:47;37.40;;;14.20;;
29384;SDS011;16367;48.736;9.218;2023-02-11T01:34:50;37.25;;;13.65;;
29384;SDS011;16367;48.736;9.218;2023-02-11T01:36:55;37.97;;;15.13;;
29384;SDS011;16367;48.736;9.218;2023-02-11T01:38:58;35.60;;;14.38;;
29384;SDS011;16367;48.736;9.218;2023-02-11T01:41:03;37.65;;;14.07;;
29384;SDS011;16367;48.736;9.218;2023-02-11T01:43:08;39.25;;;14.05;;
29384;SDS011;16367;48.736;9.218;2023-02-11T01:47:56;43.00;;;15.15;;
29384;SDS011;16367;48.736;9.218;2023-02-11T01:49:59;36.08;;;13.70;;
29384;SDS011;16367;48.736;9.218;2023-02-11T01:52:04;38.33;;;16.10;;
29384;SDS011;16367;48.736;9.218;2023-02-11T01:54:12;41.45;;;16.98;;
29384;SDS011;16367;48.736;9.218;2023-02-11T01:56:37;41.25;;;15.77;;
29384;SDS011;16367;48.736;9.218;2023-02-11T01:59:03;39.78;;;14.88;;
29384;SDS011;16367;48.736;9.218;2023-02-11T02:01:12;40.85;;;15.82;;
29384;SDS011;16367;48.736;9.218;2023-02-11T02:03:18;42.17;;;16.00;;
29384;SDS011;16367;48.736;9.218;2023-02-11T02:05:23;41.45;;;15.93;;
29384;SDS011;16367;48.736;9.218;2023-02-11T02:07:32;39.33;;;16.27;;
29384;SDS011;16367;48.736;9.218;2023-02-11T02:09:41;39.65;;;16.35;;
29384;SDS011;16367;48.736;9.218;2023-02-11T02:11:48;41.78;;;14.48;;
29384;SDS011;16367;48.736;9.218;2023-02-11T02:13:52;35.83;;;15.10;;
29384;SDS011;16367;48.736;9.218;2023-02-11T02:15:55;41.63;;;14.93;;
29384;SDS011;16367;48.736;9.218;2023-02-11T02:18:01;36.05;;;13.93;;
29384;SDS011;16367;48.736;9.218;2023-02-11T02:20:15;40.97;;;15.88;;
29384;SDS011;16367;48.736;9.218;2023-02-11T02:22:46;35.53;;;15.43;;
29384;SDS011;16367;48.736;9.218;2023-02-11T02:25:18;34.25;;;14.05;;
29384;SDS011;16367;48.736;9.218;2023-02-11T02:27:35;37.50;;;13.57;;
29384;SDS011;16367;48.736;9.218;2023-02-11T02:30:06;35.00;;;15.00;;
29384;SDS011;16367;48.736;9.218;2023-02-11T02:35:24;31.77;;;11.93;;
29384;SDS011;16367;48.736;9.218;2023-02-11T02:37:35;35.40;;;13.32;;
29384;SDS011;16367;48.736;9.218;2023-02-11T02:39:43;32.80;;;13.20;;
29384;SDS011;16367;48.736;9.218;2023-02-11T02:41:49;31.70;;;13.43;;
29384;SDS011;16367;48.736;9.218;2023-02-11T02:43:54;34.95;;;15.15;;
29384;SDS011;16367;48.736;9.218;2023-02-11T02:46:08;37.30;;;13.75;;
29384;SDS011;16367;48.736;9.218;2023-02-11T02:48:23;35.10;;;12.68;;
29384;SDS011;16367;48.736;9.218;2023-02-11T02:50:29;37.20;;;15.38;;
29384;SDS011;16367;48.736;9.218;2023-02-11T02:52:34;34.78;;;14.13;;
29384;SDS011;16367;48.736;9.218;2023-02-11T02:54:47;35.03;;;13.32;;
29384;SDS011;16367;48.736;9.218;2023-02-11T02:57:09;32.83;;;13.15;;
29384;SDS011;16367;48.736;9.218;2023-02-11T02:59:28;33.38;;;13.18;;
29384;SDS011;16367;48.736;9.218;2023-02-11T03:01:43;35.55;;;13.10;;
29384;SDS011;16367;48.736;9.218;2023-02-11T03:04:00;33.60;;;14.10;;
29384;SDS011;16367;48.736;9.218;2023-02-11T03:06:09;35.58;;;15.57;;
29384;SDS011;16367;48.736;9.218;2023-02-11T03:08:21;36.50;;;15.65;;
29384;SDS011;16367;48.736;9.218;2023-02-11T03:10:30;38.65;;;14.85;;
29384;SDS011;16367;48.736;9.218;2023-02-11T03:12:35;35.67;;;14.75;;
29384;SDS011;16367;48.736;9.218;2023-02-11T03:14:39;38.55;;;14.15;;
29384;SDS011;16367;48.736;9.218;2023-02-11T03:16:43;35.78;;;15.43;;
29384;SDS011;16367;48.736;9.218;2023-02-11T03:18:48;32.08;;;13.07;;
29384;SDS011;16367;48.736;9.218;2023-02-11T03:20:54;34.55;;;13.23;;
29384;SDS011;16367;48.736;9.218;2023-02-11T03:23:12;33.92;;;14.30;;
29384;SDS011;16367;48.736;9.218;2023-02-11T03:25:19;32.60;;;13.73;;
29384;SDS011;16367;48.736;9.218;2023-02-11T03:27:25;32.03;;;13.52;;
29384;SDS011;16367;48.736;9.218;2023-02-11T03:29:31;32.58;;;13.55;;
29384;SDS011;16367;48.736;9.218;2023-02-11T03:31:39;36.53;;;13.93;;
29384;SDS011;16367;48.736;9.218;2023-02-11T03:33:51;30.60;;;12.80;;
29384;SDS011;16367;48.736;9.218;2023-02-11T03:36:01;34.13;;;14.02;;
29384;SDS011;16367;48.736;9.218;2023-02-11T03:38:08;32.33;;;13.73;;
29384;SDS011;16367;48.736;9.218;2023-02-11T03:40:16;35.22;;;14.77;;
29384;SDS011;16367;48.736;9.218;2023-02-11T03:42:22;37.60;;;13.48;;
29384;SDS011;16367;48.736;9.218;2023-02-11T03:44:31;37.00;;;13.88;;
29384;SDS011;16367;48.736;9.218;2023-02-11T03:46:36;33.00;;;13.43;;
29384;SDS011;16367;48.736;9.218;2023-02-11T03:48:42;33.38;;;14.25;;
29384;SDS011;16367;48.736;9.218;2023-02-11T03:50:48;39.03;;;13.95;;
29384;SDS011;16367;48.736;9.218;2023-02-11T03:52:54;33.55;;;14.73;;
29384;SDS011;16367;48.736;9.218;2023-02-11T03:54:58;31.10;;;12.60;;
29384;SDS011;16367;48.736;9.218;2023-02-11T03:57:03;36.53;;;13.52;;
29384;SDS011;16367;48.736;9.218;2023-02-11T03:59:06;34.72;;;13.95;;
29384;SDS011;16367;48.736;9.218;2023-02-11T04:01:09;33.45;;;13.68;;
29384;SDS011;16367;48.736;9.218;2023-02-11T04:03:12;36.10;;;14.48;;
29384;SDS011;16367;48.736;9.218;2023-02-11T04:05:15;38.30;;;13.77;;
29384;SDS011;16367;48.736;9.218;2023-02-11T04:07:17;28.85;;;12.98;;
29384;SDS011;16367;48.736;9.218;2023-02-11T04:09:21;37.17;;;14.68;;
29384;SDS011;16367;48.736;9.218;2023-02-11T04:11:24;34.20;;;14.15;;
29384;SDS011;16367;48.736;9.218;2023-02-11T04:13:27;37.55;;;14.52;;
29384;SDS011;16367;48.736;9.218;2023-02-11T04:15:30;32.90;;;13.02;;
29384;SDS011;16367;48.736;9.218;2023-02-11T04:17:32;33.65;;;12.68;;
29384;SDS011;16367;48.736;9.218;2023-02-11T04:19:35;34.92;;;14.40;;
29384;SDS011;16367;48.736;9.218;2023-02-11T04:21:38;37.20;;;14.45;;
29384;SDS011;16367;48.736;9.218;2023-02-11T04:23:40;34.10;;;14.07;;
29384;SDS011;16367;48.736;9.218;2023-02-11T04:25:44;33.78;;;13.48;;
29384;SDS011;16367;48.736;9.218;2023-02-11T04:27:47;32.65;;;13.73;;
29384;SDS011;16367;48.736;9.218;2023-02-11T04:29:50;27.75;;;13.40;;
29384;SDS011;16367;48.736;9.218;2023-02-11T04:31:53;29.92;;;12.82;;
29384;SDS011;16367;48.736;9.218;2023-02-11T04:33:56;33.20;;;13.00;;
29384;SDS011;16367;48.736;9.218;2023-02-11T04:35:59;32.80;;;13.20;;
29384;SDS011;16367;48.736;9.218;2023-02-11T04:38:01;28.55;;;13.57;;
29384;SDS011;16367;48.736;9.218;2023-02-11T04:40:04;32.67;;;13.93;;
29384;SDS011;16367;48.736;9.218;2023-02-11T04:42:09;32.55;;;12.82;;
29384;SDS011;16367;48.736;9.218;2023-02-11T04:44:12;36.75;;;14.70;;
29384;SDS011;16367;48.736;9.218;2023-02-11T04:46:15;36.40;;;15.43;;
29384;SDS011;16367;48.736;9.218;2023-02-11T04:48:17;38.05;;;15.45;;
29384;SDS011;16367;48.736;9.218;2023-02-11T04:50:20;33.30;;;13.32;;
29384;SDS011;16367;48.736;9.218;2023-02-11T04:52:23;38.28;;;15.52;;
29384;SDS011;16367;48.736;9.218;2023-02-11T04:54:25;36.58;;;15.82;;
29384;SDS011;16367;48.736;9.218;2023-02-11T04:56:28;32.47;;;14.55;;
29384;SDS011;16367;48.736;9.218;2023-02-11T04:58:32;34.25;;;14.23;;
29384;SDS011;16367;48.736;9.218;2023-02-11T05:00:35;38.20;;;15.82;;
29384;SDS011;16367;48.736;9.218;2023-02-11T05:02:38;36.03;;;15.32;;
29384;SDS011;16367;48.736;9.218;2023-02-11T05:04:40;37.25;;;15.98;;
29384;SDS011;16367;48.736;9.218;2023-02-11T05:06:43;36.10;;;15.55;;
29384;SDS011;16367;48.736;9.218;2023-02-11T05:08:46;34.88;;;15.60;;
29384;SDS011;16367;48.736;9.218;2023-02-11T05:10:49;45.22;;;17.55;;
29384;SDS011;16367;48.736;9.218;2023-02-11T05:12:52;39.72;;;17.25;;
29384;SDS011;16367;48.736;9.218;2023-02-11T05:14:57;38.17;;;17.00;;
29384;SDS011;16367;48.736;9.218;2023-02-11T05:17:00;34.10;;;15.13;;
29384;SDS011;16367;48.736;9.218;2023-02-11T05:19:03;43.55;;;17.20;;
29384;SDS011;16367;48.736;9.218;2023-02-11T05:21:06;39.17;;;16.67;;
29384;SDS011;16367;48.736;9.218;2023-02-11T05:23:10;34.60;;;15.23;;
29384;SDS011;16367;48.736;9.218;2023-02-11T05:25:13;38.20;;;17.05;;
29384;SDS011;16367;48.736;9.218;2023-02-11T05:27:16;31.17;;;13.45;;
29384;SDS011;16367;48.736;9.218;2023-02-11T05:29:19;36.33;;;15.30;;
29384;SDS011;16367;48.736;9.218;2023-02-11T05:31:24;36.75;;;15.98;;
29384;SDS011;16367;48.736;9.218;2023-02-11T05:33:27;37.72;;;14.77;;
29384;SDS011;16367;48.736;9.218;2023-02-11T05:35:29;36.75;;;13.88;;
29384;SDS011;16367;48.736;9.218;2023-02-11T05:37:32;39.20;;;14.73;;
29384;SDS011;16367;48.736;9.218;2023-02-11T05:39:35;37.80;;;15.70;;
29384;SDS011;16367;48.736;9.218;2023-02-11T05:41:37;39.90;;;16.08;;
29384;SDS011;16367;48.736;9.218;2023-02-11T05:43:40;28.45;;;14.63;;
29384;SDS011;16367;48.736;9.218;2023-02-11T05:45:43;31.60;;;14.40;;
29384;SDS011;16367;48.736;9.218;2023-02-11T05:47:47;32.92;;;14.52;;
29384;SDS011;16367;48.736;9.218;2023-02-11T05:49:50;32.58;;;14.88;;
29384;SDS011;16367;48.736;9.218;2023-02-11T05:51:53;34.55;;;15.00;;
29384;SDS011;16367;48.736;9.218;2023-02-11T05:53:56;37.00;;;15.77;;
29384;SDS011;16367;48.736;9.218;2023-02-11T05:55:59;31.75;;;13.93;;
29384;SDS011;16367;48.736;9.218;2023-02-11T05:58:02;34.53;;;13.95;;
29384;SDS011;16367;48.736;9.218;2023-02-11T06:00:05;37.08;;;14.95;;
29384;SDS011;16367;48.736;9.218;2023-02-11T06:02:08;36.40;;;15.30;;
29384;SDS011;16367;48.736;9.218;2023-02-11T06:04:12;37.00;;;15.70;;
29384;SDS011;16367;48.736;9.218;2023-02-11T06:06:15;37.67;;;14.77;;
29384;SDS011;16367;48.736;9.218;2023-02-11T06:08:18;35.85;;;14.77;;
29384;SDS011;16367;48.736;9.218;2023-02-11T06:10:21;34.35;;;14.13;;
29384;SDS011;16367;48.736;9.218;2023-02-11T06:12:23;37.00;;;14.00;;
29384;SDS011;16367;48.736;9.218;2023-02-11T06:14:27;33.78;;;13.52;;
29384;SDS011;16367;48.736;9.218;2023-02-11T06:16:29;31.83;;;15.50;;
29384;SDS011;16367;48.736;9.218;2023-02-11T06:18:32;37.55;;;14.27;;
29384;SDS011;16367;48.736;9.218;2023-02-11T06:20:37;29.55;;;13.32;;
29384;SDS011;16367;48.736;9.218;2023-02-11T06:22:41;32.22;;;12.88;;
29384;SDS011;16367;48.736;9.218;2023-02-11T06:24:43;26.27;;;12.45;;
29384;SDS011;16367;48.736;9.218;2023-02-11T06:27:01;33.78;;;13.50;;
29384;SDS011;16367;48.736;9.218;2023-02-11T06:29:05;31.23;;;13.65;;
29384;SDS011;16367;48.736;9.218;2023-02-11T06:31:07;32.33;;;12.80;;
29384;SDS011;16367;48.736;9.218;2023-02-11T06:33:11;28.00;;;11.85;;
29384;SDS011;16367;48.736;9.218;2023-02-11T06:35:14;31.08;;;13.15;;
29384;SDS011;16367;48.736;9.218;2023-02-11T06:37:18;31.30;;;13.82;;
29384;SDS011;16367;48.736;9.218;2023-02-11T06:39:21;31.05;;;13.52;;
29384;SDS011;16367;48.736;9.218;2023-02-11T06:41:24;33.95;;;13.27;;
29384;SDS011;16367;48.736;9.218;2023-02-11T06:43:26;33.97;;;14.45;;
29384;SDS011;16367;48.736;9.218;2023-02-11T06:45:29;31.38;;;13.95;;
29384;SDS011;16367;48.736;9.218;2023-02-11T06:47:32;27.92;;;12.32;;
29384;SDS011;16367;48.736;9.218;2023-02-11T06:49:34;32.50;;;14.15;;
29384;SDS011;16367;48.736;9.218;2023-02-11T06:51:37;31.33;;;14.48;;
29384;SDS011;16367;48.736;9.218;2023-02-11T06:53:42;34.65;;;14.25;;
29384;SDS011;16367;48.736;9.218;2023-02-11T06:55:46;32.33;;;12.68;;
29384;SDS011;16367;48.736;9.218;2023-02-11T06:57:50;31.42;;;12.73;;
29384;SDS011;16367;48.736;9.218;2023-02-11T06:59:53;28.55;;;13.82;;
29384;SDS011;16367;48.736;9.218;2023-02-11T07:01:55;28.58;;;13.50;;
29384;SDS011;16367;48.736;9.218;2023-02-11T07:03:58;29.50;;;13.27;;
29384;SDS011;16367;48.736;9.218;2023-02-11T07:06:01;32.45;;;13.82;;
29384;SDS011;16367;48.736;9.218;2023-02-11T07:08:04;33.47;;;13.60;;
29384;SDS011;16367;48.736;9.218;2023-02-11T07:10:08;28.73;;;12.15;;
29384;SDS011;16367;48.736;9.218;2023-02-11T07:12:11;30.20;;;13.40;;
29384;SDS011;16367;48.736;9.218;2023-02-11T07:14:14;28.80;;;12.70;;
29384;SDS011;16367;48.736;9.218;2023-02-11T07:16:17;34.22;;;13.45;;
29384;SDS011;16367;48.736;9.218;2023-02-11T07:18:20;28.15;;;12.48;;
29384;SDS011;16367;48.736;9.218;2023-02-11T07:20:23;32.50;;;13.82;;
29384;SDS011;16367;48.736;9.218;2023-02-11T07:22:26;30.63;;;14.65;;
29384;SDS011;16367;48.736;9.218;2023-02-11T07:24:29;32.17;;;14.35;;
29384;SDS011;16367;48.736;9.218;2023-02-11T07:26:33;28.52;;;12.82;;
29384;SDS011;16367;48.736;9.218;2023-02-11T07:28:36;29.80;;;14.23;;
29384;SDS011;16367;48.736;9.218;2023-02-11T07:30:39;32.28;;;12.88;;
29384;SDS011;16367;48.736;9.218;2023-02-11T07:32:42;30.65;;;14.02;;
29384;SDS011;16367;48.736;9.218;2023-02-11T07:34:44;30.60;;;14.55;;
29384;SDS011;16367;48.736;9.218;2023-02-11T07:36:48;34.40;;;13.23;;
29384;SDS011;16367;48.736;9.218;2023-02-11T07:38:51;31.20;;;14.35;;
29384;SDS011;16367;48.736;9.218;2023-02-11T07:40:58;33.08;;;14.57;;
29384;SDS011;16367;48.736;9.218;2023-02-11T07:43:02;30.75;;;13.45;;
29384;SDS011;16367;48.736;9.218;2023-02-11T07:45:05;34.38;;;13.82;;
29384;SDS011;16367;48.736;9.218;2023-02-11T07:47:08;34.75;;;13.88;;
29384;SDS011;16367;48.736;9.218;2023-02-11T07:49:11;28.15;;;13.75;;
29384;SDS011;16367;48.736;9.218;2023-02-11T07:51:15;34.55;;;13.80;;
29384;SDS011;16367;48.736;9.218;2023-02-11T07:53:18;37.13;;;14.27;;
29384;SDS011;16367;48.736;9.218;2023-02-11T07:55:21;36.22;;;14.77;;
29384;SDS011;16367;48.736;9.218;2023-02-11T07:57:23;28.45;;;12.00;;
29384;SDS011;16367;48.736;9.218;2023-02-11T07:59:28;30.00;;;12.77;;
29384;SDS011;16367;48.736;9.218;2023-02-11T08:01:30;28.00;;;13.25;;
29384;SDS011;16367;48.736;9.218;2023-02-11T08:03:33;29.98;;;13.18;;
29384;SDS011;16367;48.736;9.218;2023-02-11T08:05:37;32.55;;;14.05;;
29384;SDS011;16367;48.736;9.218;2023-02-11T08:07:39;26.75;;;12.38;;
29384;SDS011;16367;48.736;9.218;2023-02-11T08:09:42;29.65;;;13.07;;
29384;SDS011;16367;48.736;9.218;2023-02-11T08:11:45;29.17;;;12.13;;
29384;SDS011;16367;48.736;9.218;2023-02-11T08:13:48;33.28;;;13.98;;
29384;SDS011;16367;48.736;9.218;2023-02-11T08:15:52;31.00;;;13.18;;
29384;SDS011;16367;48.736;9.218;2023-02-11T08:17:58;29.13;;;12.93;;
29384;SDS011;16367;48.736;9.218;2023-02-11T08:20:01;33.28;;;14.45;;
29384;SDS011;16367;48.736;9.218;2023-02-11T08:22:04;30.10;;;13.32;;
29384;SDS011;16367;48.736;9.218;2023-02-11T08:24:06;27.58;;;13.65;;
29384;SDS011;16367;48.736;9.218;2023-02-11T08:26:10;28.77;;;12.13;;
29384;SDS011;16367;48.736;9.218;2023-02-11T08:28:14;31.30;;;13.35;;
29384;SDS011;16367;48.736;9.218;2023-02-11T08:30:17;30.67;;;12.70;;
29384;SDS011;16367;48.736;9.218;2023-02-11T08:32:21;31.35;;;12.65;;
29384;SDS011;16367;48.736;9.218;2023-02-11T08:34:25;27.42;;;12.00;;
29384;SDS011;16367;48.736;9.218;2023-02-11T08:36:29;28.00;;;13.25;;
29384;SDS011;16367;48.736;9.218;2023-02-11T08:38:33;25.88;;;12.43;;
29384;SDS011;16367;48.736;9.218;2023-02-11T08:40:35;26.58;;;12.27;;
29384;SDS011;16367;48.736;9.218;2023-02-11T08:42:38;27.98;;;12.02;;
29384;SDS011;16367;48.736;9.218;2023-02-11T08:44:41;27.80;;;12.00;;
29384;SDS011;16367;48.736;9.218;2023-02-11T08:46:44;25.65;;;12.10;;
29384;SDS011;16367;48.736;9.218;2023-02-11T08:48:48;29.08;;;12.65;;
29384;SDS011;16367;48.736;9.218;2023-02-11T08:50:51;22.88;;;10.93;;
29384;SDS011;16367;48.736;9.218;2023-02-11T08:52:54;23.58;;;10.98;;
29384;SDS011;16367;48.736;9.218;2023-02-11T08:54:56;24.27;;;10.85;;
29384;SDS011;16367;48.736;9.218;2023-02-11T08:56:59;26.23;;;12.07;;
29384;SDS011;16367;48.736;9.218;2023-02-11T08:59:03;26.98;;;12.35;;
29384;SDS011;16367;48.736;9.218;2023-02-11T09:01:09;26.05;;;11.27;;
29384;SDS011;16367;48.736;9.218;2023-02-11T09:03:12;29.00;;;12.15;;
29384;SDS011;16367;48.736;9.218;2023-02-11T09:05:17;24.42;;;10.82;;
29384;SDS011;16367;48.736;9.218;2023-02-11T09:07:20;26.58;;;11.98;;
29384;SDS011;16367;48.736;9.218;2023-02-11T09:09:22;26.48;;;11.93;;
29384;SDS011;16367;48.736;9.218;2023-02-11T09:11:27;25.70;;;12.23;;
29384;SDS011;16367;48.736;9.218;2023-02-11T09:13:32;24.17;;;12.30;;
29384;SDS011;16367;48.736;9.218;2023-02-11T09:15:35;24.77;;;13.05;;
29384;SDS011;16367;48.736;9.218;2023-02-11T09:17:38;25.45;;;12.05;;
29384;SDS011;16367;48.736;9.218;2023-02-11T09:19:41;27.58;;;13.60;;
29384;SDS011;16367;48.736;9.218;2023-02-11T09:21:45;21.92;;;12.68;;
29384;SDS011;16367;48.736;9.218;2023-02-11T09:23:47;26.75;;;13.20;;
29384;SDS011;16367;48.736;9.218;2023-02-11T09:25:50;25.05;;;12.68;;
29384;SDS011;16367;48.736;9.218;2023-02-11T09:27:53;25.00;;;13.23;;
29384;SDS011;16367;48.736;9.218;2023-02-11T09:29:56;24.20;;;13.50;;
29384;SDS011;16367;48.736;9.218;2023-02-11T09:31:59;27.10;;;13.98;;
29384;SDS011;16367;48.736;9.218;2023-02-11T09:34:02;26.58;;;13.82;;
29384;SDS011;16367;48.736;9.218;2023-02-11T09:36:07;27.75;;;14.35;;
29384;SDS011;16367;48.736;9.218;2023-02-11T09:38:11;23.50;;;12.48;;
29384;SDS011;16367;48.736;9.218;2023-02-11T09:40:14;25.17;;;12.48;;
29384;SDS011;16367;48.736;9.218;2023-02-11T09:42:36;24.75;;;13.02;;
29384;SDS011;16367;48.736;9.218;2023-02-11T09:44:43;27.60;;;14.30;;
29384;SDS011;16367;48.736;9.218;2023-02-11T09:46:49;30.88;;;14.23;;
29384;SDS011;16367;48.736;9.218;2023-02-11T09:48:56;26.92;;;13.88;;
29384;SDS011;16367;48.736;9.218;2023-02-11T09:50:59;28.67;;;13.20;;
29384;SDS011;16367;48.736;9.218;2023-02-11T09:53:05;30.77;;;13.80;;
29384;SDS011;16367;48.736;9.218;2023-02-11T09:55:18;26.67;;;14.27;;
29384;SDS011;16367;48.736;9.218;2023-02-11T09:57:23;25.85;;;12.80;;
29384;SDS011;16367;48.736;9.218;2023-02-11T09:59:29;26.52;;;13.63;;
29384;SDS011;16367;48.736;9.218;2023-02-11T10:01:33;28.50;;;13.15;;
29384;SDS011;16367;48.736;9.218;2023-02-11T10:03:46;26.40;;;12.30;;
29384;SDS011;16367;48.736;9.218;2023-02-11T10:06:04;27.08;;;12.48;;
29384;SDS011;16367;48.736;9.218;2023-02-11T10:08:17;24.08;;;11.93;;
29384;SDS011;16367;48.736;9.218;2023-02-11T10:10:36;24.02;;;11.80;;
29384;SDS011;16367;48.736;9.218;2023-02-11T10:12:52;24.77;;;11.77;;
29384;SDS011;16367;48.736;9.218;2023-02-11T10:15:17;21.23;;;10.15;;
29384;SDS011;16367;48.736;9.218;2023-02-11T10:17:30;31.83;;;11.60;;
29384;SDS011;16367;48.736;9.218;2023-02-11T10:19:45;21.58;;;10.57;;
29384;SDS011;16367;48.736;9.218;2023-02-11T10:22:05;22.67;;;10.82;;
29384;SDS011;16367;48.736;9.218;2023-02-11T10:24:13;22.55;;;11.07;;
29384;SDS011;16367;48.736;9.218;2023-02-11T10:26:18;22.65;;;10.00;;
29384;SDS011;16367;48.736;9.218;2023-02-11T10:28:23;23.40;;;11.00;;
29384;SDS011;16367;48.736;9.218;2023-02-11T10:30:31;23.20;;;10.48;;
29384;SDS011;16367;48.736;9.218;2023-02-11T10:32:37;22.08;;;11.15;;
29384;SDS011;16367;48.736;9.218;2023-02-11T10:34:45;22.20;;;11.18;;
29384;SDS011;16367;48.736;9.218;2023-02-11T10:36:48;22.17;;;10.43;;
29384;SDS011;16367;48.736;9.218;2023-02-11T10:38:51;20.15;;;10.63;;
29384;SDS011;16367;48.736;9.218;2023-02-11T10:40:54;24.58;;;11.05;;
29384;SDS011;16367;48.736;9.218;2023-02-11T10:42:59;21.92;;;9.38;;
29384;SDS011;16367;48.736;9.218;2023-02-11T10:45:05;21.23;;;10.90;;
29384;SDS011;16367;48.736;9.218;2023-02-11T10:47:16;19.58;;;8.95;;
29384;SDS011;16367;48.736;9.218;2023-02-11T10:51:40;17.35;;;9.23;;
29384;SDS011;16367;48.736;9.218;2023-02-11T10:53:43;19.10;;;8.45;;
29384;SDS011;16367;48.736;9.218;2023-02-11T10:55:48;18.33;;;8.75;;
29384;SDS011;16367;48.736;9.218;2023-02-11T10:57:54;18.98;;;9.32;;
29384;SDS011;16367;48.736;9.218;2023-02-11T11:02:04;18.42;;;7.78;;
29384;SDS011;16367;48.736;9.218;2023-02-11T11:04:30;21.83;;;8.85;;
29384;SDS011;16367;48.736;9.218;2023-02-11T11:06:36;14.95;;;8.02;;
29384;SDS011;16367;48.736;9.218;2023-02-11T11:08:40;18.00;;;8.57;;
29384;SDS011;16367;48.736;9.218;2023-02-11T11:10:45;17.40;;;7.75;;
29384;SDS011;16367;48.736;9.218;2023-02-11T11:12:49;16.38;;;8.02;;
29384;SDS011;16367;48.736;9.218;2023-02-11T11:14:55;19.00;;;7.50;;
29384;SDS011;16367;48.736;9.218;2023-02-11T11:17:01;17.17;;;8.13;;
29384;SDS011;16367;48.736;9.218;2023-02-11T11:19:13;20.45;;;7.13;;
29384;SDS011;16367;48.736;9.218;2023-02-11T11:21:22;14.23;;;7.38;;
29384;SDS011;16367;48.736;9.218;2023-02-11T11:23:26;13.32;;;6.78;;
29384;SDS011;16367;48.736;9.218;2023-02-11T11:25:31;14.13;;;6.82;;
29384;SDS011;16367;48.736;9.218;2023-02-11T11:27:33;17.67;;;7.50;;
29384;SDS011;16367;48.736;9.218;2023-02-11T11:29:37;15.27;;;7.50;;
29384;SDS011;16367;48.736;9.218;2023-02-11T11:31:46;14.60;;;6.70;;
29384;SDS011;16367;48.736;9.218;2023-02-11T11:33:53;16.38;;;6.82;;
29384;SDS011;16367;48.736;9.218;2023-02-11T11:36:00;14.45;;;6.78;;
29384;SDS011;16367;48.736;9.218;2023-02-11T11:38:10;15.73;;;7.60;;
29384;SDS011;16367;48.736;9.218;2023-02-11T11:40:20;14.13;;;6.70;;
29384;SDS011;16367;48.736;9.218;2023-02-11T11:42:25;14.45;;;6.68;;
29384;SDS011;16367;48.736;9.218;2023-02-11T11:44:30;18.95;;;9.10;;
29384;SDS011;16367;48.736;9.218;2023-02-11T11:46:35;23.00;;;9.40;;
29384;SDS011;16367;48.736;9.218;2023-02-11T11:48:40;23.10;;;10.63;;
29384;SDS011;16367;48.736;9.218;2023-02-11T11:50:50;21.42;;;10.48;;
29384;SDS011;16367;48.736;9.218;2023-02-11T11:52:58;21.90;;;10.05;;
29384;SDS011;16367;48.736;9.218;2023-02-11T11:55:08;20.48;;;10.10;;
29384;SDS011;16367;48.736;9.218;2023-02-11T11:57:17;19.92;;;9.52;;
29384;SDS011;16367;48.736;9.218;2023-02-11T11:59:23;21.33;;;10.02;;
29384;SDS011;16367;48.736;9.218;2023-02-11T12:01:30;19.95;;;10.85;;
29384;SDS011;16367;48.736;9.218;2023-02-11T12:03:57;20.20;;;10.18;;
29384;SDS011;16367;48.736;9.218;2023-02-11T12:06:16;19.50;;;9.70;;
29384;SDS011;16367;48.736;9.218;2023-02-11T12:08:29;18.35;;;9.57;;
29384;SDS011;16367;48.736;9.218;2023-02-11T12:13:16;17.80;;;9.68;;
29384;SDS011;16367;48.736;9.218;2023-02-11T12:15:29;19.77;;;10.23;;
29384;SDS011;16367;48.736;9.218;2023-02-11T12:17:42;16.70;;;8.95;;
29384;SDS011;16367;48.736;9.218;2023-02-11T12:22:32;17.88;;;9.38;;
29384;SDS011;16367;48.736;9.218;2023-02-11T12:24:52;17.42;;;9.50;;
29384;SDS011;16367;48.736;9.218;2023-02-11T12:27:04;18.33;;;9.23;;
29384;SDS011;16367;48.736;9.218;2023-02-11T12:29:18;20.35;;;9.95;;
29384;SDS011;16367;48.736;9.218;2023-02-11T12:31:33;18.20;;;9.32;;